Terminal Aerodrome Forecast
Issued by NWS

Home | Current Version | Previous Version | Text Only | Print | Product List | Glossary On
Versions: 1 2 3 4 5 6 7 8 9 10 11 12 13 14 15 16 17 18 19 20 21 22 23 24 25
091
FTUS44 KFWD 192115 AAA
TAFAFW
TAF AMD
KAFW 192115Z 1921/2018 18017KT P6SM SCT021
     FM192300 17016KT P6SM BKN021
     FM200200 17015KT P6SM BKN017
     FM200800 17014KT 3SM -DZ BR BKN008
     FM201600 18013KT P6SM BKN025=

USA.gov is the U.S. government's official web portal to all federal, state and local government web resources and services.